createdAt,value
2023-05-15T00:00:55.742Z,5.85
2023-05-15T00:03:31.431Z,6.17
2023-05-15T00:06:05.051Z,6.37
2023-05-15T00:08:40.361Z,5.35
2023-05-15T00:11:14.218Z,7.45
2023-05-15T00:13:47.737Z,6.58
2023-05-15T00:16:21.290Z,6.35
2023-05-15T00:18:54.835Z,5.80
2023-05-15T00:21:28.278Z,6.58
2023-05-15T00:24:01.905Z,5.75
2023-05-15T00:26:35.441Z,5.70
2023-05-15T00:29:09.422Z,5.97
2023-05-15T00:31:44.594Z,6.45
2023-05-15T00:34:17.886Z,6.33
2023-05-15T00:36:51.536Z,6.67
2023-05-15T00:39:24.993Z,6.40
2023-05-15T00:42:01.975Z,7.37
2023-05-15T00:44:36.017Z,6.97
2023-05-15T00:47:11.543Z,6.03
2023-05-15T00:49:45.869Z,7.80
2023-05-15T00:52:19.616Z,6.55
2023-05-15T00:54:54.310Z,6.10
2023-05-15T00:57:28.912Z,6.10
2023-05-15T01:00:06.916Z,5.92
2023-05-15T01:05:13.293Z,6.28
2023-05-15T01:07:51.432Z,6.45
2023-05-15T01:10:25.661Z,6.87
2023-05-15T01:13:01.250Z,7.75
2023-05-15T01:15:35.002Z,6.87
2023-05-15T01:18:09.493Z,6.45
2023-05-15T01:20:48.273Z,7.45
2023-05-15T01:23:26.970Z,7.67
2023-05-15T01:26:49.357Z,6.87
2023-05-15T01:29:25.999Z,6.35
2023-05-15T01:32:02.044Z,8.95
2023-05-15T01:34:39.387Z,6.50
2023-05-15T01:37:15.624Z,7.35
2023-05-15T01:39:51.313Z,7.17
2023-05-15T01:42:27.642Z,6.58
2023-05-15T01:45:04.563Z,6.47
2023-05-15T01:47:41.318Z,6.30
2023-05-15T01:50:18.262Z,6.85
2023-05-15T01:52:54.710Z,8.43
2023-05-15T01:55:29.375Z,8.05
2023-05-15T01:58:04.364Z,8.88
2023-05-15T02:00:39.932Z,7.65
2023-05-15T02:03:14.338Z,8.35
2023-05-15T02:05:48.683Z,7.65
2023-05-15T02:08:23.238Z,8.35
2023-05-15T02:10:58.343Z,7.55
2023-05-15T02:13:34.326Z,8.58
2023-05-15T02:16:08.775Z,8.18
2023-05-15T02:18:45.401Z,9.00
2023-05-15T02:21:21.801Z,8.60
2023-05-15T02:23:55.943Z,9.05
2023-05-15T02:26:33.904Z,8.95
2023-05-15T02:31:47.264Z,8.43
2023-05-15T02:34:25.391Z,8.48
2023-05-15T02:39:44.052Z,8.28
2023-05-15T02:42:19.489Z,7.78
2023-05-15T02:44:54.791Z,6.85
2023-05-15T02:47:30.422Z,8.00
2023-05-15T02:50:05.860Z,7.65
2023-05-15T02:52:39.010Z,8.80
2023-05-15T02:55:13.366Z,8.25
2023-05-15T02:57:46.531Z,7.42
2023-05-15T03:00:21.723Z,8.58
2023-05-15T03:02:55.128Z,9.98
2023-05-15T03:05:28.968Z,8.55
2023-05-15T03:08:02.945Z,7.80
2023-05-15T03:10:36.262Z,8.45
2023-05-15T03:13:09.784Z,8.73
2023-05-15T03:15:45.174Z,8.60
2023-05-15T03:18:19.680Z,8.45
2023-05-15T03:20:55.033Z,9.15
2023-05-15T03:23:28.564Z,8.23
2023-05-15T03:26:02.272Z,8.53
2023-05-15T03:28:35.654Z,8.13
2023-05-15T03:31:09.340Z,8.43
2023-05-15T03:33:43.480Z,8.60
2023-05-15T03:36:17.279Z,7.95
2023-05-15T03:38:50.699Z,7.37
2023-05-15T03:41:24.231Z,7.17
2023-05-15T03:43:58.147Z,8.30
2023-05-15T03:46:31.820Z,7.37
2023-05-15T03:49:05.459Z,7.75
2023-05-15T03:51:40.397Z,6.90
2023-05-15T03:54:13.781Z,7.92
2023-05-15T03:56:47.535Z,6.55
2023-05-15T03:59:20.909Z,6.72
2023-05-15T04:02:04.117Z,6.33
2023-05-15T04:04:29.131Z,6.12
2023-05-15T04:07:03.614Z,6.47
2023-05-15T04:09:37.535Z,6.60
2023-05-15T04:12:11.881Z,6.28
2023-05-15T04:15:22.345Z,6.15
2023-05-15T04:18:39.482Z,5.50
2023-05-15T04:21:18.394Z,5.05
2023-05-15T04:24:21.821Z,4.58
2023-05-15T04:27:24.490Z,3.20
2023-05-15T04:33:01.293Z,3.27
2023-05-15T04:35:35.068Z,3.77
2023-05-15T04:38:08.166Z,3.62
2023-05-15T04:40:41.839Z,3.40
2023-05-15T04:43:18.233Z,2.65
2023-05-15T04:45:51.892Z,2.45
2023-05-15T04:48:25.570Z,2.83
2023-05-15T04:50:59.190Z,2.80
2023-05-15T04:53:32.951Z,2.70
2023-05-15T04:56:07.125Z,2.52
2023-05-15T04:58:40.730Z,2.47
2023-05-15T05:01:14.370Z,2.20
2023-05-15T05:03:47.975Z,2.02
2023-05-15T05:06:27.013Z,2.25
2023-05-15T05:09:04.874Z,2.20
2023-05-15T05:11:39.261Z,2.00
2023-05-15T05:14:12.966Z,1.77
2023-05-15T05:16:47.494Z,2.40
2023-05-15T05:19:21.176Z,1.60
2023-05-15T05:21:54.890Z,1.95
2023-05-15T05:24:30.248Z,1.65
2023-05-15T05:27:03.904Z,1.82
2023-05-15T05:29:37.341Z,1.70
2023-05-15T05:32:10.833Z,1.87
2023-05-15T05:34:44.259Z,1.45
2023-05-15T05:37:17.663Z,1.67
2023-05-15T05:39:51.228Z,1.72
2023-05-15T05:42:24.482Z,1.62
2023-05-15T05:44:58.158Z,1.55
2023-05-15T05:47:31.441Z,1.30
2023-05-15T05:50:05.199Z,1.55
2023-05-15T05:52:38.464Z,1.52
2023-05-15T05:55:12.604Z,1.10
2023-05-15T05:57:46.229Z,1.30
2023-05-15T06:00:21.564Z,1.15
2023-05-15T06:02:57.695Z,1.40
2023-05-15T06:05:31.548Z,1.50
2023-05-15T06:08:05.656Z,1.35
2023-05-15T06:10:38.975Z,1.32
2023-05-15T06:13:14.242Z,1.17
2023-05-15T06:15:48.055Z,1.52
2023-05-15T06:18:22.412Z,1.32
2023-05-15T06:20:56.045Z,1.37
2023-05-15T06:23:29.565Z,1.27
2023-05-15T06:26:03.176Z,1.20
2023-05-15T06:28:37.281Z,1.45
2023-05-15T06:31:11.550Z,1.30
2023-05-15T06:33:45.067Z,1.37
2023-05-15T06:36:19.210Z,1.65
2023-05-15T06:38:52.833Z,1.35
2023-05-15T06:41:26.458Z,1.22
2023-05-15T06:44:00.417Z,1.40
2023-05-15T06:46:33.899Z,1.60
2023-05-15T06:49:07.238Z,1.15
2023-05-15T06:51:40.724Z,1.30
2023-05-15T06:54:14.262Z,1.77
2023-05-15T06:56:47.831Z,1.42
2023-05-15T06:59:21.498Z,1.05
2023-05-15T07:01:56.121Z,1.05
2023-05-15T07:04:31.139Z,1.30
2023-05-15T07:07:04.696Z,1.00
2023-05-15T07:09:38.209Z,0.78
2023-05-15T07:12:12.680Z,1.05
2023-05-15T07:14:46.279Z,1.10
2023-05-15T07:17:19.922Z,1.30
2023-05-15T07:19:53.413Z,1.47
2023-05-15T07:22:28.189Z,1.50
2023-05-15T07:25:01.685Z,1.45
2023-05-15T07:27:36.104Z,1.15
2023-05-15T07:30:11.842Z,1.20
2023-05-15T07:32:45.583Z,1.22
2023-05-15T07:35:19.267Z,1.30
2023-05-15T07:38:02.756Z,0.88
2023-05-15T07:40:35.846Z,1.65
2023-05-15T07:43:09.325Z,1.00
2023-05-15T07:45:43.318Z,1.00
2023-05-15T07:48:21.716Z,1.02
2023-05-15T07:50:57.235Z,0.82
2023-05-15T07:53:31.136Z,1.62
2023-05-15T07:56:04.590Z,1.10
2023-05-15T07:58:38.467Z,1.17
2023-05-15T08:01:12.502Z,1.32
2023-05-15T08:03:46.133Z,0.90
2023-05-15T08:06:20.101Z,1.40
2023-05-15T08:08:53.767Z,1.10
2023-05-15T08:11:26.927Z,0.80
2023-05-15T08:14:00.728Z,0.95
2023-05-15T08:16:33.994Z,1.00
2023-05-15T08:19:08.145Z,1.00
2023-05-15T08:21:42.021Z,0.80
2023-05-15T08:24:15.627Z,0.70
2023-05-15T08:26:49.473Z,0.62
2023-05-15T08:29:23.192Z,0.98
2023-05-15T08:31:56.859Z,0.62
2023-05-15T08:34:30.671Z,1.20
2023-05-15T08:37:04.302Z,0.90
2023-05-15T08:39:37.996Z,1.00
2023-05-15T08:42:15.093Z,1.10
2023-05-15T08:47:22.359Z,1.02
2023-05-15T08:50:00.840Z,0.80
2023-05-15T08:52:35.778Z,0.82
2023-05-15T08:55:11.532Z,0.78
2023-05-15T08:57:46.265Z,0.83
2023-05-15T09:00:22.443Z,0.55
2023-05-15T09:02:56.792Z,0.68
2023-05-15T09:05:31.645Z,0.60
2023-05-15T09:08:08.259Z,0.42
2023-05-15T09:13:14.672Z,0.90
2023-05-15T09:15:49.664Z,0.62
2023-05-15T09:18:23.642Z,0.95
2023-05-15T09:20:57.442Z,0.78
2023-05-15T09:23:31.043Z,0.50
2023-05-15T09:26:04.963Z,0.60
2023-05-15T09:28:38.430Z,1.40
2023-05-15T09:36:37.650Z,1.05
2023-05-15T09:41:51.734Z,0.70
2023-05-15T09:44:27.414Z,0.70
2023-05-15T09:47:01.126Z,0.80
2023-05-15T09:49:34.784Z,1.35
2023-05-15T09:52:10.906Z,0.93
2023-05-15T09:54:50.228Z,0.95
2023-05-15T09:57:24.293Z,1.25
2023-05-15T09:59:59.356Z,0.75
2023-05-15T10:02:35.474Z,0.57
2023-05-15T10:05:10.013Z,0.65
2023-05-15T10:07:43.509Z,0.50
2023-05-15T10:10:17.025Z,0.93
2023-05-15T10:12:51.860Z,0.60
2023-05-15T10:15:25.646Z,0.50
2023-05-15T10:18:00.291Z,0.55
2023-05-15T10:20:36.567Z,0.60
2023-05-15T10:23:11.906Z,0.80
2023-05-15T10:25:48.954Z,0.40
2023-05-15T10:28:23.990Z,0.40
2023-05-15T10:30:59.376Z,0.65
2023-05-15T10:33:33.612Z,0.93
2023-05-15T10:36:08.823Z,0.53
2023-05-15T10:38:43.013Z,0.57
2023-05-15T10:41:18.116Z,0.88
2023-05-15T10:43:53.264Z,0.70
2023-05-15T10:46:27.292Z,0.57
2023-05-15T10:49:01.974Z,0.50
2023-05-15T10:51:39.656Z,0.53
2023-05-15T10:54:13.281Z,0.98
2023-05-15T10:56:46.969Z,0.80
2023-05-15T10:59:20.509Z,0.95
2023-05-15T11:01:53.754Z,0.70
2023-05-15T11:04:27.706Z,1.20
2023-05-15T11:07:14.305Z,0.78
2023-05-15T11:09:47.592Z,0.93
2023-05-15T11:12:21.201Z,0.75
2023-05-15T11:15:31.310Z,0.90
2023-05-15T11:18:09.104Z,0.50
2023-05-15T11:20:43.944Z,0.50
2023-05-15T11:23:17.315Z,0.50
2023-05-15T11:25:55.441Z,0.60
2023-05-15T11:28:31.517Z,0.55
2023-05-15T11:31:07.950Z,0.82
2023-05-15T11:33:42.324Z,0.40
2023-05-15T11:36:18.660Z,0.90
2023-05-15T11:38:53.955Z,0.57
2023-05-15T11:41:31.789Z,0.37
2023-05-15T11:44:05.409Z,0.78
2023-05-15T11:46:38.717Z,0.72
2023-05-15T11:49:15.259Z,0.70
2023-05-15T11:51:50.387Z,1.02
2023-05-15T11:54:25.442Z,0.57
2023-05-15T11:57:00.464Z,0.90
2023-05-15T11:59:35.955Z,0.50
2023-05-15T12:02:09.693Z,0.80
2023-05-15T12:04:43.336Z,0.47
2023-05-15T12:07:16.923Z,0.80
2023-05-15T12:09:55.256Z,0.40
2023-05-15T12:12:29.586Z,0.55
2023-05-15T12:15:05.403Z,0.60
2023-05-15T12:17:40.016Z,0.50
2023-05-15T12:20:15.790Z,0.70
2023-05-15T12:22:49.055Z,0.70
2023-05-15T12:25:22.365Z,0.50
2023-05-15T12:27:55.550Z,0.90
2023-05-15T12:30:29.911Z,0.60
2023-05-15T12:33:05.191Z,0.60
2023-05-15T12:35:40.104Z,0.53
2023-05-15T12:38:16.894Z,0.50
2023-05-15T12:40:53.734Z,0.93
2023-05-15T12:43:28.224Z,1.22
2023-05-15T12:46:01.561Z,0.40
2023-05-15T12:48:35.297Z,0.60
2023-05-15T12:51:09.730Z,0.55
2023-05-15T12:56:19.643Z,0.90
2023-05-15T12:58:54.710Z,0.95
2023-05-15T13:01:31.259Z,0.88
2023-05-15T13:04:05.355Z,1.40
2023-05-15T13:06:46.936Z,0.70
2023-05-15T13:09:24.025Z,0.65
2023-05-15T13:11:58.599Z,0.50
2023-05-15T13:14:36.591Z,0.60
2023-05-15T13:17:10.093Z,0.50
2023-05-15T13:19:43.222Z,0.78
2023-05-15T13:22:16.788Z,0.60
2023-05-15T13:24:50.921Z,0.80
2023-05-15T13:27:24.116Z,0.50
2023-05-15T13:29:57.601Z,1.00
2023-05-15T13:32:31.402Z,0.72
2023-05-15T13:35:08.499Z,0.72
2023-05-15T13:37:41.909Z,0.72
2023-05-15T13:40:16.658Z,0.93
2023-05-15T13:42:51.229Z,0.70
2023-05-15T13:45:25.290Z,0.72
2023-05-15T13:47:58.850Z,0.60
2023-05-15T13:50:32.186Z,0.80
2023-05-15T13:53:05.410Z,0.60
2023-05-15T13:55:38.938Z,0.47
2023-05-15T13:58:12.651Z,0.40
2023-05-15T14:00:46.507Z,0.50
2023-05-15T14:03:20.869Z,1.05
2023-05-15T14:05:54.431Z,0.70
2023-05-15T14:08:28.368Z,0.62
2023-05-15T14:11:02.778Z,1.00
2023-05-15T14:13:36.642Z,1.25
2023-05-15T14:16:10.753Z,0.70
2023-05-15T14:18:44.046Z,0.62
2023-05-15T14:21:17.347Z,0.68
2023-05-15T14:23:50.920Z,0.70
2023-05-15T14:26:24.787Z,0.72
2023-05-15T14:28:58.296Z,0.72
2023-05-15T14:31:31.648Z,1.00
2023-05-15T14:34:05.645Z,0.70
2023-05-15T14:36:39.082Z,0.93
2023-05-15T14:39:12.867Z,0.98
2023-05-15T14:41:47.623Z,0.85
2023-05-15T14:44:21.447Z,0.88
2023-05-15T14:47:09.713Z,0.90
2023-05-15T14:49:43.454Z,0.85
2023-05-15T14:52:17.001Z,0.75
2023-05-15T14:55:00.499Z,0.62
2023-05-15T14:57:26.368Z,0.42
2023-05-15T15:00:00.111Z,0.93
2023-05-15T15:02:35.700Z,0.80
2023-05-15T15:05:11.487Z,1.55
2023-05-15T15:10:57.269Z,0.75
2023-05-15T15:13:31.134Z,0.70
2023-05-15T15:16:05.041Z,0.70
2023-05-15T15:18:38.349Z,0.60
2023-05-15T15:21:12.499Z,0.82
2023-05-15T15:23:45.986Z,1.07
2023-05-15T15:26:19.171Z,3.22
2023-05-15T15:28:52.830Z,1.60
2023-05-15T15:31:26.225Z,1.50
2023-05-15T15:34:04.419Z,2.20
2023-05-15T15:36:39.349Z,1.20
2023-05-15T15:39:13.271Z,1.62
2023-05-15T15:41:46.689Z,1.55
2023-05-15T15:44:20.397Z,1.17
2023-05-15T15:46:53.915Z,0.57
2023-05-15T15:49:27.314Z,1.00
2023-05-15T15:52:00.672Z,1.20
2023-05-15T15:54:34.102Z,1.50
2023-05-15T15:57:07.868Z,1.10
2023-05-15T15:59:41.406Z,0.70
2023-05-15T16:02:15.331Z,1.22
2023-05-15T16:04:48.756Z,1.10
2023-05-15T16:07:22.819Z,1.80
2023-05-15T16:10:04.283Z,0.75
2023-05-15T16:12:31.494Z,10.35
2023-05-15T16:15:20.869Z,7.90
2023-05-15T16:17:41.170Z,7.70
2023-05-15T16:20:15.118Z,3.62
2023-05-15T16:22:48.598Z,1.77
2023-05-15T16:25:22.567Z,1.62
2023-05-15T16:27:56.170Z,1.00
2023-05-15T16:30:44.220Z,1.10
2023-05-15T16:33:04.933Z,6.50
2023-05-15T16:38:27.234Z,1.00
2023-05-15T16:41:04.193Z,2.17
2023-05-15T16:43:38.872Z,1.20
2023-05-15T16:46:12.792Z,1.35
2023-05-15T16:48:47.329Z,4.15
2023-05-15T16:51:21.593Z,1.85
2023-05-15T16:53:56.552Z,2.08
2023-05-15T16:56:30.156Z,1.15
2023-05-15T16:59:04.131Z,1.57
2023-05-15T17:01:37.701Z,1.75
2023-05-15T17:04:11.256Z,2.25
2023-05-15T17:06:44.865Z,2.77
2023-05-15T17:09:18.278Z,1.90
2023-05-15T17:11:51.694Z,2.17
2023-05-15T17:14:26.172Z,2.55
2023-05-15T17:16:59.664Z,2.52
2023-05-15T17:19:35.229Z,1.70
2023-05-15T17:22:08.697Z,1.60
2023-05-15T17:24:50.674Z,1.42
2023-05-15T17:27:18.479Z,1.57
2023-05-15T17:29:52.297Z,2.20
2023-05-15T17:32:26.151Z,1.52
2023-05-15T17:34:59.503Z,2.35
2023-05-15T17:37:34.855Z,2.25
2023-05-15T17:42:53.000Z,2.25
2023-05-15T17:45:27.080Z,2.50
2023-05-15T17:48:02.647Z,2.95
2023-05-15T17:50:38.339Z,2.42
2023-05-15T17:53:11.870Z,3.47
2023-05-15T17:55:45.587Z,3.85
2023-05-15T17:58:19.054Z,2.90
2023-05-15T18:00:53.736Z,2.40
2023-05-15T18:03:27.567Z,1.62
2023-05-15T18:06:01.327Z,2.08
2023-05-15T18:08:35.242Z,1.98
2023-05-15T18:11:18.006Z,2.65
2023-05-15T18:13:44.224Z,1.67
2023-05-15T18:16:18.095Z,2.80
2023-05-15T18:18:52.355Z,3.50
2023-05-15T18:21:26.027Z,3.47
2023-05-15T18:23:59.646Z,3.12
2023-05-15T18:26:32.734Z,4.10
2023-05-15T18:29:06.358Z,5.15
2023-05-15T18:31:39.958Z,5.30
2023-05-15T18:34:13.428Z,3.40
2023-05-15T18:36:47.097Z,3.08
2023-05-15T18:39:21.969Z,3.52
2023-05-15T18:41:55.263Z,3.77
2023-05-15T18:44:28.756Z,3.10
2023-05-15T18:47:02.306Z,3.45
2023-05-15T18:49:52.363Z,5.70
2023-05-15T18:52:28.685Z,5.08
2023-05-15T18:55:27.624Z,2.90
2023-05-15T18:58:05.962Z,3.83
2023-05-15T19:00:40.105Z,4.42
2023-05-15T19:03:23.259Z,3.90
2023-05-15T19:06:12.425Z,3.75
2023-05-15T19:08:52.188Z,3.65
2023-05-15T19:11:25.982Z,3.40
2023-05-15T19:13:59.324Z,3.10
2023-05-15T19:16:33.290Z,3.20
2023-05-15T19:19:06.874Z,3.02
2023-05-15T19:21:40.447Z,3.10
2023-05-15T19:24:13.832Z,4.20
2023-05-15T19:26:47.049Z,3.25
2023-05-15T19:29:20.605Z,3.33
2023-05-15T19:31:53.742Z,3.80
2023-05-15T19:34:27.220Z,3.70
2023-05-15T19:37:01.005Z,3.75
2023-05-15T19:39:35.025Z,3.87
2023-05-15T19:42:08.510Z,3.40
2023-05-15T19:44:41.649Z,3.65
2023-05-15T19:47:15.178Z,4.00
2023-05-15T19:49:48.565Z,3.55
2023-05-15T19:52:22.660Z,2.83
2023-05-15T19:54:55.951Z,3.22
2023-05-15T19:57:29.064Z,3.80
2023-05-15T20:00:03.550Z,3.17
2023-05-15T20:02:37.672Z,3.47
2023-05-15T20:05:14.321Z,3.60
2023-05-15T20:07:50.301Z,3.87
2023-05-15T20:10:24.703Z,3.67
2023-05-15T20:12:58.889Z,4.08
2023-05-15T20:15:33.581Z,3.85
2023-05-15T20:18:08.203Z,3.52
2023-05-15T20:20:41.640Z,4.20
2023-05-15T20:23:17.040Z,4.45
2023-05-15T20:25:52.237Z,3.70
2023-05-15T20:28:27.411Z,3.47
2023-05-15T20:31:01.861Z,3.60
2023-05-15T20:33:35.821Z,3.25
2023-05-15T20:36:10.712Z,3.75
2023-05-15T20:38:45.199Z,5.55
2023-05-15T20:41:20.904Z,4.05
2023-05-15T20:43:54.564Z,4.72
2023-05-15T20:46:30.236Z,4.20
2023-05-15T20:49:04.610Z,3.40
2023-05-15T20:51:38.269Z,3.98
2023-05-15T20:54:11.985Z,3.67
2023-05-15T20:56:45.304Z,3.98
2023-05-15T20:59:18.769Z,4.17
2023-05-15T21:01:52.660Z,4.33
2023-05-15T21:04:26.416Z,4.28
2023-05-15T21:07:00.076Z,3.60
2023-05-15T21:09:34.256Z,4.05
2023-05-15T21:12:10.739Z,5.58
2023-05-15T21:14:44.767Z,4.27
2023-05-15T21:17:18.923Z,4.17
2023-05-15T21:19:52.407Z,5.75
2023-05-15T21:22:26.324Z,4.90
2023-05-15T21:25:00.185Z,5.45
2023-05-15T21:27:35.227Z,4.83
2023-05-15T21:30:11.662Z,4.80
2023-05-15T21:32:45.032Z,4.72
2023-05-15T21:35:18.575Z,5.08
2023-05-15T21:37:52.321Z,5.08
2023-05-15T21:40:26.162Z,5.22
2023-05-15T21:42:59.893Z,5.25
2023-05-15T21:45:33.495Z,5.00
2023-05-15T21:48:07.439Z,4.50
2023-05-15T21:50:40.711Z,4.50
2023-05-15T21:53:14.336Z,4.78
2023-05-15T21:55:48.372Z,5.17
2023-05-15T21:58:21.883Z,4.47
2023-05-15T22:00:56.145Z,6.00
2023-05-15T22:03:29.805Z,5.42
2023-05-15T22:06:03.356Z,5.83
2023-05-15T22:08:39.645Z,5.20
2023-05-15T22:11:13.227Z,6.03
2023-05-15T22:13:46.581Z,5.00
2023-05-15T22:16:20.387Z,5.30
2023-05-15T22:18:54.111Z,6.22
2023-05-15T22:21:27.561Z,7.22
2023-05-15T22:24:00.719Z,6.35
2023-05-15T22:26:34.954Z,5.92
2023-05-15T22:29:09.060Z,6.70
2023-05-15T22:31:42.786Z,7.28
2023-05-15T22:34:16.398Z,5.97
2023-05-15T22:36:49.868Z,6.90
2023-05-15T22:39:23.501Z,6.30
2023-05-15T22:41:57.203Z,6.47
2023-05-15T22:44:33.177Z,7.58
2023-05-15T22:47:08.192Z,6.45
2023-05-15T22:49:41.884Z,7.10
2023-05-15T22:52:15.507Z,7.10
2023-05-15T22:54:49.006Z,7.28
2023-05-15T22:57:22.197Z,6.28
2023-05-15T22:59:55.962Z,7.10
2023-05-15T23:02:29.498Z,6.92
2023-05-15T23:05:03.108Z,6.50
2023-05-15T23:08:01.959Z,7.03
2023-05-15T23:10:35.467Z,6.45
2023-05-15T23:13:08.995Z,6.70
2023-05-15T23:15:44.238Z,6.72
2023-05-15T23:18:17.911Z,6.47
2023-05-15T23:20:51.683Z,6.00
2023-05-15T23:23:25.311Z,6.65
2023-05-15T23:25:59.790Z,6.40
2023-05-15T23:28:33.264Z,7.15
2023-05-15T23:31:06.975Z,9.25
2023-05-15T23:33:40.815Z,7.45
2023-05-15T23:36:14.381Z,8.15
2023-05-15T23:38:48.304Z,7.55
2023-05-15T23:41:22.865Z,8.75
2023-05-15T23:43:56.385Z,8.63
2023-05-15T23:46:30.173Z,7.92
2023-05-15T23:49:04.131Z,9.18
2023-05-15T23:51:37.321Z,9.03
2023-05-15T23:54:11.724Z,7.70
2023-05-15T23:56:45.573Z,8.48
2023-05-15T23:59:19.268Z,5.75
